createdAt,value
2017-10-03T00:00:10.882Z,13.38
2017-10-03T00:02:38.852Z,13.88
2017-10-03T00:05:06.756Z,16.42
2017-10-03T00:07:34.779Z,20.23
2017-10-03T00:10:02.682Z,18.42
2017-10-03T00:12:30.663Z,17.92
2017-10-03T00:14:58.578Z,19.65
2017-10-03T00:17:27.325Z,15.23
2017-10-03T00:19:55.249Z,17.33
2017-10-03T00:22:23.206Z,10.15
2017-10-03T00:24:51.118Z,13.57
2017-10-03T00:27:19.118Z,14.43
2017-10-03T00:29:47.058Z,17.80
2017-10-03T00:32:15.076Z,13.93
2017-10-03T00:34:42.997Z,9.15
2017-10-03T00:37:11.065Z,13.88
2017-10-03T00:39:39.013Z,13.40
2017-10-03T00:42:07.005Z,14.52
2017-10-03T00:44:35.126Z,21.67
2017-10-03T00:47:03.103Z,14.57
2017-10-03T00:49:31.032Z,10.32
2017-10-03T00:51:59.778Z,12.00
2017-10-03T00:54:27.759Z,9.77
2017-10-03T00:56:55.769Z,14.80
2017-10-03T00:59:23.853Z,15.27
2017-10-03T01:01:51.843Z,13.57
2017-10-03T01:04:19.821Z,12.23
2017-10-03T01:06:47.907Z,12.65
2017-10-03T01:09:15.884Z,6.53
2017-10-03T01:11:43.856Z,9.27
2017-10-03T01:14:11.822Z,15.95
2017-10-03T01:16:39.732Z,7.75
2017-10-03T01:19:07.725Z,6.37
2017-10-03T01:21:35.672Z,13.40
2017-10-03T01:24:03.690Z,7.20
2017-10-03T01:26:31.633Z,13.40
2017-10-03T01:28:59.627Z,9.15
2017-10-03T01:31:27.520Z,10.25
2017-10-03T01:33:55.465Z,11.82
2017-10-03T01:36:23.433Z,10.18
2017-10-03T01:38:51.401Z,8.48
2017-10-03T01:41:19.285Z,9.63
2017-10-03T01:43:48.016Z,13.48
2017-10-03T01:46:15.942Z,13.57
2017-10-03T01:48:43.886Z,13.93
2017-10-03T01:51:12.541Z,7.50
2017-10-03T01:53:40.488Z,6.25
2017-10-03T01:56:08.422Z,9.20
2017-10-03T01:58:37.425Z,15.85
2017-10-03T02:01:05.441Z,8.02
2017-10-03T02:03:33.376Z,5.87
2017-10-03T02:06:01.375Z,8.00
2017-10-03T02:08:29.329Z,11.73
2017-10-03T02:10:57.276Z,6.68
2017-10-03T02:13:25.193Z,7.85
2017-10-03T02:15:53.139Z,6.28
2017-10-03T02:18:21.103Z,10.45
2017-10-03T02:20:49.114Z,7.87
2017-10-03T02:23:17.068Z,7.55
2017-10-03T02:25:45.061Z,7.10
2017-10-03T02:28:13.023Z,11.18
2017-10-03T02:30:40.971Z,6.70
2017-10-03T02:33:08.886Z,8.68
2017-10-03T02:35:36.846Z,7.47
2017-10-03T02:38:04.768Z,8.95
2017-10-03T02:40:32.721Z,11.90
2017-10-03T02:43:00.612Z,4.28
2017-10-03T02:45:28.589Z,10.52
2017-10-03T02:47:56.504Z,6.55
2017-10-03T02:50:24.450Z,9.50
2017-10-03T02:52:52.341Z,9.93
2017-10-03T02:55:20.283Z,8.75
2017-10-03T02:57:48.358Z,11.90
2017-10-03T03:00:16.314Z,9.80
2017-10-03T03:02:44.213Z,7.47
2017-10-03T03:05:12.936Z,4.82
2017-10-03T03:07:40.832Z,5.60
2017-10-03T03:10:08.735Z,9.25
2017-10-03T03:12:37.454Z,7.12
2017-10-03T03:15:05.359Z,7.95
2017-10-03T03:17:33.315Z,7.07
2017-10-03T03:20:01.222Z,9.13
2017-10-03T03:22:29.184Z,9.25
2017-10-03T03:24:57.084Z,10.13
2017-10-03T03:27:26.224Z,10.25
2017-10-03T03:29:54.175Z,9.30
2017-10-03T03:32:22.105Z,8.18
2017-10-03T03:34:50.064Z,10.10
2017-10-03T03:37:18.024Z,15.07
2017-10-03T03:39:45.933Z,6.87
2017-10-03T03:42:13.891Z,12.70
2017-10-03T03:44:41.798Z,12.80
2017-10-03T03:47:09.756Z,8.23
2017-10-03T03:49:37.667Z,11.32
2017-10-03T03:52:05.607Z,9.82
2017-10-03T03:54:33.588Z,7.47
2017-10-03T03:57:01.586Z,15.65
2017-10-03T03:59:29.518Z,14.98
2017-10-03T04:01:57.478Z,10.85
2017-10-03T04:04:25.561Z,6.97
2017-10-03T04:06:53.567Z,9.07
2017-10-03T04:09:21.473Z,11.27
2017-10-03T04:11:49.373Z,7.30
2017-10-03T04:14:17.346Z,14.50
2017-10-03T04:16:45.259Z,12.93
2017-10-03T04:19:13.245Z,10.07
2017-10-03T04:21:42.636Z,12.50
2017-10-03T04:24:12.450Z,18.45
2017-10-03T04:26:43.159Z,12.65
2017-10-03T04:29:13.802Z,10.27
2017-10-03T04:31:43.242Z,10.15
2017-10-03T04:34:12.654Z,13.70
2017-10-03T04:36:41.892Z,7.47
2017-10-03T04:39:11.164Z,15.25
2017-10-03T04:41:40.285Z,13.98
2017-10-03T04:44:09.539Z,10.70
2017-10-03T04:46:38.299Z,13.93
2017-10-03T04:49:06.261Z,11.50
2017-10-03T04:51:34.460Z,9.07
2017-10-03T04:54:02.426Z,8.85
2017-10-03T04:56:30.348Z,12.25
2017-10-03T04:58:58.327Z,11.88
2017-10-03T05:01:26.227Z,9.60
2017-10-03T05:03:54.955Z,9.70
2017-10-03T05:06:22.898Z,9.32
2017-10-03T05:08:51.625Z,8.57
2017-10-03T05:11:19.533Z,12.48
2017-10-03T05:13:47.486Z,10.80
2017-10-03T05:16:15.423Z,9.43
2017-10-03T05:18:43.404Z,7.70
2017-10-03T05:21:11.305Z,9.48
2017-10-03T05:23:39.228Z,12.80
2017-10-03T05:26:07.191Z,6.80
2017-10-03T05:28:35.246Z,6.85
2017-10-03T05:31:03.970Z,6.93
2017-10-03T05:33:31.898Z,8.50
2017-10-03T05:36:00.629Z,10.23
2017-10-03T05:38:28.546Z,10.00
2017-10-03T05:40:57.323Z,13.27
2017-10-03T05:43:25.302Z,18.48
2017-10-03T05:45:53.293Z,22.45
2017-10-03T05:48:21.989Z,20.23
2017-10-03T05:50:49.966Z,30.30
2017-10-03T05:53:17.892Z,20.42
2017-10-03T05:55:45.887Z,31.33
2017-10-03T05:58:26.462Z,33.28
2017-10-03T06:00:54.451Z,32.17
2017-10-03T06:03:22.376Z,28.73
2017-10-03T06:05:50.362Z,33.13
2017-10-03T06:08:18.336Z,33.63
2017-10-03T06:10:47.091Z,27.02
2017-10-03T06:13:15.048Z,24.42
2017-10-03T06:15:43.026Z,28.48
2017-10-03T06:18:10.948Z,28.08
2017-10-03T06:20:38.941Z,27.00
2017-10-03T06:23:07.656Z,29.73
2017-10-03T06:25:35.626Z,26.25
2017-10-03T06:28:03.750Z,24.55
2017-10-03T06:30:31.735Z,26.17
2017-10-03T06:32:59.657Z,28.55
2017-10-03T06:35:27.615Z,30.98
2017-10-03T06:37:55.581Z,39.58
2017-10-03T06:40:23.514Z,30.12
2017-10-03T06:42:51.544Z,29.60
2017-10-03T06:45:20.231Z,34.78
2017-10-03T06:47:48.958Z,29.40
2017-10-03T06:50:16.857Z,27.92
2017-10-03T06:52:44.830Z,25.98
2017-10-03T06:55:12.744Z,29.55
2017-10-03T06:57:40.707Z,28.48
2017-10-03T07:00:08.652Z,39.42
2017-10-03T07:02:36.613Z,28.62
2017-10-03T07:05:04.536Z,33.80
2017-10-03T07:07:32.468Z,30.12
2017-10-03T07:10:00.384Z,29.02
2017-10-03T07:12:28.333Z,30.80
2017-10-03T07:14:56.281Z,25.98
2017-10-03T07:17:24.303Z,26.67
2017-10-03T07:19:52.231Z,28.45
2017-10-03T07:22:20.188Z,36.22
2017-10-03T07:24:48.115Z,25.40
2017-10-03T07:27:16.089Z,22.33
2017-10-03T07:29:44.007Z,28.98
2017-10-03T07:32:12.740Z,23.95
2017-10-03T07:34:40.663Z,30.88
2017-10-03T07:37:08.651Z,20.90
2017-10-03T07:39:36.585Z,22.02
2017-10-03T07:42:05.376Z,17.67
2017-10-03T07:44:33.336Z,17.92
2017-10-03T07:47:01.328Z,19.65
2017-10-03T07:49:30.051Z,30.65
2017-10-03T07:51:58.062Z,20.25
2017-10-03T07:54:26.040Z,20.73
2017-10-03T07:56:53.939Z,28.45
2017-10-03T07:59:21.907Z,22.05
2017-10-03T08:01:49.831Z,31.10
2017-10-03T08:04:17.808Z,28.60
2017-10-03T08:06:45.723Z,36.75
2017-10-03T08:09:13.690Z,18.75
2017-10-03T08:11:41.621Z,23.12
2017-10-03T08:14:09.593Z,23.17
2017-10-03T08:16:37.504Z,24.45
2017-10-03T08:19:05.528Z,22.02
2017-10-03T08:21:33.447Z,28.05
2017-10-03T08:24:01.427Z,23.10
2017-10-03T08:26:29.373Z,19.58
2017-10-03T08:28:58.555Z,29.60
2017-10-03T08:31:28.832Z,16.95
2017-10-03T08:33:57.346Z,28.17
2017-10-03T08:36:25.246Z,31.20
2017-10-03T08:38:58.012Z,20.42
2017-10-03T08:41:26.700Z,29.48
2017-10-03T08:43:54.721Z,23.73
2017-10-03T08:46:22.634Z,24.70
2017-10-03T08:48:50.626Z,47.95
2017-10-03T08:51:19.354Z,50.95
2017-10-03T08:53:47.375Z,21.12
2017-10-03T08:56:15.337Z,22.33
2017-10-03T08:58:44.059Z,28.30
2017-10-03T09:01:12.037Z,26.33
2017-10-03T09:03:39.989Z,21.12
2017-10-03T09:06:07.978Z,12.50
2017-10-03T09:08:36.078Z,23.30
2017-10-03T09:11:04.085Z,18.40
2017-10-03T09:13:32.933Z,19.95
2017-10-03T09:16:00.971Z,15.98
2017-10-03T09:18:28.908Z,22.25
2017-10-03T09:20:57.727Z,22.25
2017-10-03T09:23:25.672Z,15.88
2017-10-03T09:25:53.737Z,29.75
2017-10-03T09:28:21.756Z,15.23
2017-10-03T09:30:49.774Z,15.60
2017-10-03T09:33:21.607Z,13.53
2017-10-03T09:35:49.678Z,19.30
2017-10-03T09:38:17.702Z,13.17
2017-10-03T09:40:46.217Z,19.17
2017-10-03T09:43:14.279Z,18.40
2017-10-03T09:45:42.257Z,14.67
2017-10-03T09:48:10.537Z,20.27
2017-10-03T09:50:38.537Z,11.23
2017-10-03T09:53:06.441Z,12.57
2017-10-03T09:55:34.659Z,16.67
2017-10-03T09:58:02.707Z,12.33
2017-10-03T10:00:30.645Z,14.30
2017-10-03T10:02:58.618Z,14.23
2017-10-03T10:05:26.584Z,15.30
2017-10-03T10:07:54.571Z,22.00
2017-10-03T10:10:22.508Z,13.10
2017-10-03T10:12:51.450Z,14.10
2017-10-03T10:15:19.382Z,11.82
2017-10-03T10:17:47.350Z,18.42
2017-10-03T10:20:15.295Z,13.93
2017-10-03T10:22:43.327Z,11.65
2017-10-03T10:25:11.268Z,13.48
2017-10-03T10:27:42.111Z,14.53
2017-10-03T10:30:10.058Z,15.97
2017-10-03T10:32:38.032Z,9.40
2017-10-03T10:35:05.938Z,11.05
2017-10-03T10:37:33.922Z,9.32
2017-10-03T10:40:01.867Z,12.88
2017-10-03T10:42:30.665Z,13.60
2017-10-03T10:44:58.578Z,7.43
2017-10-03T10:47:26.571Z,10.37
2017-10-03T10:49:54.493Z,9.13
2017-10-03T10:52:22.850Z,13.57
2017-10-03T10:54:50.876Z,10.53
2017-10-03T10:57:18.918Z,13.80
2017-10-03T10:59:46.912Z,10.30
2017-10-03T11:02:15.179Z,9.30
2017-10-03T11:04:43.525Z,8.50
2017-10-03T11:07:11.890Z,10.37
2017-10-03T11:09:41.119Z,12.50
2017-10-03T11:12:09.573Z,10.67
2017-10-03T11:14:38.445Z,15.50
2017-10-03T11:17:15.012Z,11.43
2017-10-03T11:19:43.096Z,7.67
2017-10-03T11:22:11.390Z,10.20
2017-10-03T11:24:46.652Z,9.07
2017-10-03T11:27:14.645Z,7.93
2017-10-03T11:29:42.796Z,14.87
2017-10-03T11:32:21.188Z,9.00
2017-10-03T11:34:58.967Z,6.67
2017-10-03T11:37:39.274Z,6.37
2017-10-03T11:43:02.530Z,8.73
2017-10-03T11:45:36.933Z,7.30
2017-10-03T11:48:08.826Z,6.70
2017-10-03T11:50:41.979Z,6.47
2017-10-03T11:53:10.105Z,10.33
2017-10-03T11:55:38.094Z,9.43
2017-10-03T11:58:06.320Z,15.50
2017-10-03T12:00:34.315Z,10.43
2017-10-03T12:03:02.246Z,7.50
2017-10-03T12:05:32.622Z,10.40
2017-10-03T12:08:00.542Z,7.70
2017-10-03T12:10:28.618Z,9.77
2017-10-03T12:12:56.513Z,6.70
2017-10-03T12:15:27.733Z,9.40
2017-10-03T12:17:55.634Z,11.57
2017-10-03T12:20:23.604Z,6.20
2017-10-03T12:22:51.521Z,15.33
2017-10-03T12:25:19.476Z,4.60
2017-10-03T12:27:47.373Z,8.53
2017-10-03T12:30:15.305Z,8.33
2017-10-03T12:32:43.177Z,6.30
2017-10-03T12:35:11.105Z,6.10
2017-10-03T12:37:38.989Z,6.23
2017-10-03T12:40:06.923Z,10.80
2017-10-03T12:42:34.821Z,8.00
2017-10-03T12:45:02.787Z,10.27
2017-10-03T12:47:30.740Z,6.97
2017-10-03T12:49:58.690Z,5.83
2017-10-03T12:52:26.626Z,6.67
2017-10-03T12:54:54.521Z,5.90
2017-10-03T12:57:22.471Z,9.57
2017-10-03T12:59:50.353Z,14.83
2017-10-03T13:02:18.353Z,7.57
2017-10-03T13:04:46.274Z,8.50
2017-10-03T13:07:14.219Z,4.20
2017-10-03T13:09:42.117Z,8.13
2017-10-03T13:12:10.827Z,6.17
2017-10-03T13:14:38.743Z,13.60
2017-10-03T13:17:06.748Z,10.83
2017-10-03T13:19:34.658Z,9.70
2017-10-03T13:22:02.636Z,7.37
2017-10-03T13:24:30.551Z,10.70
2017-10-03T13:27:05.437Z,6.93
2017-10-03T13:29:33.342Z,9.50
2017-10-03T13:32:01.315Z,12.13
2017-10-03T13:34:29.218Z,7.80
2017-10-03T13:37:05.706Z,8.43
2017-10-03T13:39:34.450Z,11.70
2017-10-03T13:42:02.442Z,12.50
2017-10-03T13:44:30.347Z,10.00
2017-10-03T13:46:58.305Z,14.40
2017-10-03T13:49:26.222Z,7.53
2017-10-03T13:51:54.374Z,11.03
2017-10-03T13:54:22.637Z,5.93
2017-10-03T13:56:51.374Z,6.10
2017-10-03T13:59:19.289Z,6.63
2017-10-03T14:01:48.034Z,6.47
2017-10-03T14:04:15.920Z,9.97
2017-10-03T14:06:45.042Z,9.60
2017-10-03T14:09:13.028Z,8.10
2017-10-03T14:11:40.956Z,13.57
2017-10-03T14:14:08.995Z,7.83
2017-10-03T14:16:36.898Z,8.03
2017-10-03T14:19:04.861Z,11.70
2017-10-03T14:21:32.793Z,11.17
2017-10-03T14:24:01.077Z,3.10
2017-10-03T14:26:29.020Z,6.90
2017-10-03T14:28:57.207Z,5.53
2017-10-03T14:31:25.139Z,10.43
2017-10-03T14:33:53.103Z,8.67
2017-10-03T14:36:21.023Z,3.90
2017-10-03T14:38:49.066Z,5.73
2017-10-03T14:41:18.394Z,10.03
2017-10-03T14:43:46.355Z,11.63
2017-10-03T14:46:15.801Z,8.37
2017-10-03T14:48:43.918Z,6.17
2017-10-03T14:51:11.853Z,16.50
2017-10-03T14:53:39.877Z,8.10
2017-10-03T14:56:07.879Z,7.70
2017-10-03T14:58:35.866Z,7.00
2017-10-03T15:01:03.822Z,7.20
2017-10-03T15:03:31.811Z,10.63
2017-10-03T15:05:59.740Z,9.60
2017-10-03T15:08:27.721Z,5.70
2017-10-03T15:10:55.675Z,7.97
2017-10-03T15:13:23.732Z,12.00
2017-10-03T15:15:51.669Z,7.70
2017-10-03T15:18:19.739Z,6.20
2017-10-03T15:20:47.769Z,20.73
2017-10-03T15:23:15.723Z,32.93
2017-10-03T15:25:43.708Z,46.50
2017-10-03T15:28:12.628Z,9.73
2017-10-03T15:30:40.841Z,7.80
2017-10-03T15:33:10.019Z,9.40
2017-10-03T15:35:37.997Z,8.23
2017-10-03T15:38:05.916Z,9.60
2017-10-03T15:40:33.890Z,9.73
2017-10-03T15:43:01.838Z,13.30
2017-10-03T15:45:29.874Z,11.37
2017-10-03T15:47:57.807Z,8.87
2017-10-03T15:50:25.791Z,8.43
2017-10-03T15:52:53.728Z,12.30
2017-10-03T15:55:21.761Z,11.60
2017-10-03T15:57:49.759Z,15.43
2017-10-03T16:00:18.510Z,15.70
2017-10-03T16:02:46.428Z,11.23
2017-10-03T16:05:14.403Z,6.93
2017-10-03T16:07:42.345Z,5.23
2017-10-03T16:10:10.341Z,6.47
2017-10-03T16:12:38.693Z,8.63
2017-10-03T16:15:07.221Z,11.13
2017-10-03T16:17:35.471Z,7.80
2017-10-03T16:20:03.519Z,8.83
2017-10-03T16:22:32.826Z,6.57
2017-10-03T16:25:01.576Z,7.43
2017-10-03T16:27:30.412Z,9.53
2017-10-03T16:29:58.431Z,11.40
2017-10-03T16:32:26.544Z,8.80
2017-10-03T16:34:57.192Z,10.47
2017-10-03T16:37:25.550Z,12.77
2017-10-03T16:39:54.006Z,10.05
2017-10-03T16:42:22.363Z,13.30
2017-10-03T16:44:53.138Z,11.03
2017-10-03T16:47:21.195Z,8.20
2017-10-03T16:49:49.175Z,10.48
2017-10-03T16:52:17.089Z,11.23
2017-10-03T16:54:45.046Z,7.93
2017-10-03T16:57:13.022Z,8.33
2017-10-03T16:59:41.033Z,14.33
2017-10-03T17:02:08.989Z,7.10
2017-10-03T17:04:37.100Z,6.30
2017-10-03T17:07:05.420Z,5.90
2017-10-03T17:09:33.341Z,8.80
2017-10-03T17:12:01.584Z,7.23
2017-10-03T17:14:29.848Z,9.30
2017-10-03T17:16:57.843Z,9.43
2017-10-03T17:19:25.792Z,9.40
2017-10-03T17:21:53.828Z,6.87
2017-10-03T17:24:21.743Z,6.57
2017-10-03T17:26:49.904Z,9.13
2017-10-03T17:29:17.911Z,5.70
2017-10-03T17:31:45.853Z,5.53
2017-10-03T17:34:13.841Z,11.10
2017-10-03T17:36:44.706Z,7.40
2017-10-03T17:39:12.676Z,9.43
2017-10-03T17:41:40.638Z,7.47
2017-10-03T17:44:08.650Z,6.97
2017-10-03T17:46:37.278Z,12.40
2017-10-03T17:49:06.075Z,6.57
2017-10-03T17:51:34.010Z,9.70
2017-10-03T17:54:01.985Z,7.55
2017-10-03T17:56:29.912Z,13.90
2017-10-03T17:58:57.902Z,20.55
2017-10-03T18:01:26.596Z,11.25
2017-10-03T18:03:55.372Z,15.93
2017-10-03T18:06:23.315Z,15.45
2017-10-03T18:08:51.316Z,23.65
2017-10-03T18:11:19.274Z,11.60
2017-10-03T18:13:47.254Z,13.60
2017-10-03T18:16:15.936Z,16.00
2017-10-03T18:18:44.712Z,12.90
2017-10-03T18:21:12.650Z,7.70
2017-10-03T18:23:40.619Z,8.80
2017-10-03T18:26:09.472Z,10.02
2017-10-03T18:28:37.406Z,4.90
2017-10-03T18:31:05.365Z,7.90
2017-10-03T18:33:33.292Z,13.25
2017-10-03T18:36:01.247Z,7.95
2017-10-03T18:38:29.210Z,9.02
2017-10-03T18:40:57.944Z,8.82
2017-10-03T18:43:25.862Z,10.00
2017-10-03T18:45:54.589Z,11.60
2017-10-03T18:48:23.401Z,8.93
2017-10-03T18:50:51.396Z,8.15
2017-10-03T18:53:19.355Z,10.35
2017-10-03T18:55:47.345Z,9.00
2017-10-03T18:58:15.302Z,7.85
2017-10-03T19:00:46.785Z,7.37
2017-10-03T19:03:15.795Z,8.18
2017-10-03T19:05:43.804Z,11.93
2017-10-03T19:08:12.521Z,8.57
2017-10-03T19:10:40.504Z,9.32
2017-10-03T19:13:08.495Z,12.40
2017-10-03T19:15:36.481Z,12.65
2017-10-03T19:18:04.553Z,10.48
2017-10-03T19:20:33.215Z,9.65
2017-10-03T19:23:01.938Z,18.08
2017-10-03T19:25:30.349Z,9.55
2017-10-03T19:27:58.289Z,12.27
2017-10-03T19:30:26.376Z,8.10
2017-10-03T19:32:58.497Z,11.45
2017-10-03T19:35:26.419Z,9.48
2017-10-03T19:37:54.388Z,7.20
2017-10-03T19:40:22.316Z,12.88
2017-10-03T19:42:50.275Z,8.90
2017-10-03T19:45:18.195Z,12.18
2017-10-03T19:47:46.467Z,7.50
2017-10-03T19:50:14.366Z,8.55
2017-10-03T19:52:43.116Z,14.65
2017-10-03T19:55:11.032Z,10.95
2017-10-03T19:57:39.032Z,8.77
2017-10-03T20:00:06.948Z,11.00
2017-10-03T20:02:34.907Z,8.05
2017-10-03T20:05:03.036Z,5.93
2017-10-03T20:07:30.935Z,9.35
2017-10-03T20:09:59.001Z,14.18
2017-10-03T20:12:27.773Z,15.25
2017-10-03T20:14:57.639Z,8.13
2017-10-03T20:17:25.624Z,8.32
2017-10-03T20:19:53.600Z,9.27
2017-10-03T20:22:21.540Z,7.93
2017-10-03T20:24:52.261Z,11.23
2017-10-03T20:27:20.258Z,9.82
2017-10-03T20:29:50.411Z,8.18
2017-10-03T20:32:19.873Z,9.70
2017-10-03T20:34:47.815Z,7.20
2017-10-03T20:37:15.953Z,8.23
2017-10-03T20:39:44.688Z,7.05
2017-10-03T20:42:12.675Z,7.45
2017-10-03T20:44:40.619Z,6.43
2017-10-03T20:47:08.520Z,7.30
2017-10-03T20:49:36.482Z,7.22
2017-10-03T20:52:04.373Z,9.20
2017-10-03T20:54:32.317Z,6.55
2017-10-03T20:57:00.203Z,5.75
2017-10-03T20:59:28.182Z,12.63
2017-10-03T21:01:56.120Z,5.60
2017-10-03T21:04:24.069Z,7.60
2017-10-03T21:06:53.146Z,10.98
2017-10-03T21:09:21.114Z,4.15
2017-10-03T21:11:49.079Z,5.28
2017-10-03T21:14:17.226Z,5.03
2017-10-03T21:16:45.770Z,12.23
2017-10-03T21:19:13.712Z,7.05
2017-10-03T21:21:41.744Z,10.85
2017-10-03T21:24:09.722Z,7.82
2017-10-03T21:26:37.651Z,12.85
2017-10-03T21:29:07.139Z,12.30
2017-10-03T21:31:35.064Z,7.40
2017-10-03T21:34:03.036Z,4.10
2017-10-03T21:36:30.956Z,8.85
2017-10-03T21:38:58.975Z,7.40
2017-10-03T21:41:29.492Z,5.43
2017-10-03T21:43:57.461Z,8.35
2017-10-03T21:46:25.549Z,7.95
2017-10-03T21:48:53.573Z,6.53
2017-10-03T21:51:21.630Z,7.37
2017-10-03T21:53:49.599Z,6.85
2017-10-03T21:56:17.556Z,6.55
2017-10-03T21:58:45.478Z,7.68
2017-10-03T22:01:13.462Z,10.90
2017-10-03T22:03:41.352Z,6.30
2017-10-03T22:06:09.295Z,8.07
2017-10-03T22:08:37.204Z,7.20
2017-10-03T22:11:05.145Z,6.87
2017-10-03T22:13:33.071Z,9.35
2017-10-03T22:16:01.020Z,8.63
2017-10-03T22:18:29.072Z,11.98
2017-10-03T22:20:57.796Z,10.55
2017-10-03T22:23:25.706Z,5.62
2017-10-03T22:25:53.698Z,9.27
2017-10-03T22:28:21.588Z,8.40
2017-10-03T22:30:49.539Z,6.95
2017-10-03T22:33:17.454Z,6.50
2017-10-03T22:35:45.406Z,6.10
2017-10-03T22:38:13.359Z,8.70
2017-10-03T22:40:42.079Z,6.78
2017-10-03T22:43:10.007Z,6.60
2017-10-03T22:45:37.947Z,9.07
2017-10-03T22:48:06.055Z,6.82
2017-10-03T22:50:33.948Z,10.18
2017-10-03T22:53:01.901Z,7.50
2017-10-03T22:55:29.823Z,5.50
2017-10-03T22:57:57.776Z,7.30
2017-10-03T23:00:25.671Z,5.03
2017-10-03T23:02:53.621Z,8.60
2017-10-03T23:05:21.612Z,4.95
2017-10-03T23:07:49.568Z,4.93
2017-10-03T23:10:17.458Z,6.20
2017-10-03T23:12:45.409Z,7.37
2017-10-03T23:15:13.342Z,9.15
2017-10-03T23:17:45.288Z,6.18
2017-10-03T23:20:13.174Z,5.75
2017-10-03T23:22:41.113Z,8.73
2017-10-03T23:25:09.772Z,7.22
2017-10-03T23:27:37.728Z,6.55
2017-10-03T23:30:05.609Z,5.43
2017-10-03T23:32:33.572Z,5.20
2017-10-03T23:35:01.512Z,5.57
2017-10-03T23:37:29.592Z,3.62
2017-10-03T23:39:57.474Z,7.55
2017-10-03T23:42:25.428Z,11.38
2017-10-03T23:44:53.483Z,6.87
2017-10-03T23:47:21.393Z,8.00
2017-10-03T23:49:49.412Z,6.90
2017-10-03T23:52:17.293Z,7.28
2017-10-03T23:54:45.211Z,9.27
2017-10-03T23:57:13.110Z,6.45
2017-10-03T23:59:41.070Z,11.90
